Time;durP1;ratioP1;P1;durP2;ratioP2;P2;SDS_P1;SDS_P2;PMS_P1;PMS_P2;Temp;Humidity;BMP_temperature;BMP_pressure;BME280_temperature;BME280_humidity;BME280_pressure;Samples;Min_cycle;Max_cycle;Signal;HPM_P1;HPM_P2
2023/03/27 00:02:14;;;;;;;5.03;3.42;;;;;;;;;;5053436;28;20052;-82
2023/03/27 00:04:43;;;;;;;4.50;3.47;;;;;;;;;;5054015;28;20060;-83
2023/03/27 00:07:09;;;;;;;5.10;3.63;;;;;;;;;;5054323;28;20112;-82
2023/03/27 00:09:36;;;;;;;4.75;3.45;;;;;;;;;;5053897;28;20033;-83
2023/03/27 00:12:02;;;;;;;5.28;3.20;;;;;;;;;;5053900;28;20075;-83
2023/03/27 00:14:29;;;;;;;4.43;3.47;;;;;;;;;;5053814;28;20094;-82
2023/03/27 00:16:58;;;;;;;4.25;3.38;;;;;;;;;;5053650;28;20029;-83
2023/03/27 00:19:25;;;;;;;6.10;3.67;;;;;;;;;;5053807;28;20028;-82
2023/03/27 00:21:51;;;;;;;4.60;3.47;;;;;;;;;;5053836;28;20044;-83
2023/03/27 00:24:17;;;;;;;4.88;3.42;;;;;;;;;;5053670;28;20476;-83
2023/03/27 00:26:43;;;;;;;4.70;3.47;;;;;;;;;;5052258;28;20047;-83
2023/03/27 00:29:09;;;;;;;5.45;3.67;;;;;;;;;;5053630;28;20021;-82
2023/03/27 00:31:35;;;;;;;5.57;3.38;;;;;;;;;;5053732;28;20082;-83
2023/03/27 00:34:02;;;;;;;5.43;3.47;;;;;;;;;;5053397;28;20096;-83
2023/03/27 00:36:28;;;;;;;4.20;3.25;;;;;;;;;;5053139;28;20116;-82
2023/03/27 00:38:54;;;;;;;4.45;3.22;;;;;;;;;;5053436;28;20037;-83
2023/03/27 00:41:21;;;;;;;4.22;3.55;;;;;;;;;;5053729;28;20035;-82
2023/03/27 00:43:48;;;;;;;4.22;3.28;;;;;;;;;;5053202;28;20029;-82
2023/03/27 00:48:56;;;;;;;6.45;3.70;;;;;;;;;;5089562;27;1268718;-82
2023/03/27 00:51:23;;;;;;;5.82;3.70;;;;;;;;;;5131031;27;20076;-82
2023/03/27 00:53:50;;;;;;;5.45;3.60;;;;;;;;;;5130078;28;20084;-83
2023/03/27 00:56:16;;;;;;;3.92;3.28;;;;;;;;;;5130234;28;20122;-82
2023/03/27 00:58:47;;;;;;;5.38;3.65;;;;;;;;;;5130208;28;20019;-82
2023/03/27 01:01:14;;;;;;;5.55;3.58;;;;;;;;;;5130868;28;20028;-83
2023/03/27 01:03:41;;;;;;;4.28;3.40;;;;;;;;;;5129995;28;20020;-83
2023/03/27 01:06:07;;;;;;;5.20;3.55;;;;;;;;;;5130184;28;20049;-83
2023/03/27 01:08:36;;;;;;;4.57;3.35;;;;;;;;;;5129786;28;20027;-82
2023/03/27 01:11:22;;;;;;;5.38;3.60;;;;;;;;;;5130322;27;20076;-82
2023/03/27 01:14:08;;;;;;;5.20;3.72;;;;;;;;;;5129115;28;20016;-82
2023/03/27 01:16:40;;;;;;;5.75;3.60;;;;;;;;;;5129303;28;20023;-82
2023/03/27 01:22:02;;;;;;;4.78;3.60;;;;;;;;;;5049106;28;20179;-83
2023/03/27 01:30:09;;;;;;;4.72;3.40;;;;;;;;;;5069844;28;20427;-83
2023/03/27 01:43:18;;;;;;;5.30;3.78;;;;;;;;;;5088202;27;1299187;-83
2023/03/27 01:51:15;;;;;;;4.82;3.47;;;;;;;;;;5049773;28;20928;-82
2023/03/27 01:53:44;;;;;;;4.70;3.40;;;;;;;;;;5049336;28;20124;-83
2023/03/27 01:56:31;;;;;;;4.90;3.47;;;;;;;;;;5049235;28;20167;-83
2023/03/27 01:59:02;;;;;;;5.07;3.53;;;;;;;;;;5048773;28;20380;-83
2023/03/27 02:01:33;;;;;;;5.65;3.30;;;;;;;;;;5049659;28;20475;-83
2023/03/27 02:04:01;;;;;;;4.75;3.33;;;;;;;;;;5049809;28;20112;-83
2023/03/27 02:06:30;;;;;;;4.95;3.63;;;;;;;;;;5049863;28;20025;-83
2023/03/27 02:11:52;;;;;;;4.38;3.30;;;;;;;;;;5089736;28;20379;-83
2023/03/27 02:14:24;;;;;;;4.97;3.22;;;;;;;;;;5088638;28;20043;-83
2023/03/27 02:16:53;;;;;;;4.20;3.20;;;;;;;;;;5089698;28;20032;-83
2023/03/27 02:19:23;;;;;;;4.65;3.35;;;;;;;;;;5089532;28;20055;-83
2023/03/27 02:21:49;;;;;;;5.13;3.60;;;;;;;;;;5089646;28;20025;-83
2023/03/27 02:24:18;;;;;;;4.43;3.03;;;;;;;;;;5089651;28;20100;-83
2023/03/27 02:26:45;;;;;;;4.18;3.20;;;;;;;;;;5090874;28;20032;-83
2023/03/27 02:29:31;;;;;;;4.28;3.00;;;;;;;;;;5091129;28;20029;-83
2023/03/27 02:32:17;;;;;;;4.20;3.28;;;;;;;;;;5103173;28;20033;-83
2023/03/27 02:45:35;;;;;;;4.43;3.20;;;;;;;;;;5088741;28;20378;-82
2023/03/27 02:48:06;;;;;;;4.53;3.17;;;;;;;;;;5090225;28;20028;-83
2023/03/27 02:50:36;;;;;;;4.30;3.13;;;;;;;;;;5090791;28;20024;-83
2023/03/27 02:53:04;;;;;;;5.88;3.60;;;;;;;;;;5092588;28;20029;-83
2023/03/27 02:55:33;;;;;;;4.80;3.42;;;;;;;;;;5091451;28;20028;-82
2023/03/27 02:58:02;;;;;;;4.75;3.30;;;;;;;;;;5089717;28;20031;-83
2023/03/27 03:00:29;;;;;;;4.72;3.00;;;;;;;;;;5089780;28;20020;-83
2023/03/27 03:03:12;;;;;;;5.55;3.15;;;;;;;;;;5089243;28;20446;-83
2023/03/27 03:05:39;;;;;;;6.00;3.30;;;;;;;;;;5088804;28;20505;-83
2023/03/27 03:08:08;;;;;;;4.32;3.03;;;;;;;;;;5089487;28;20078;-83
2023/03/27 03:10:35;;;;;;;6.03;3.40;;;;;;;;;;5089344;28;20115;-83
2023/03/27 03:13:01;;;;;;;4.05;3.13;;;;;;;;;;5089473;28;20036;-82
2023/03/27 03:15:27;;;;;;;3.72;3.08;;;;;;;;;;5089255;28;20031;-83
2023/03/27 03:17:53;;;;;;;4.90;3.45;;;;;;;;;;5089391;28;20032;-83
2023/03/27 03:20:20;;;;;;;4.40;3.08;;;;;;;;;;5089476;28;20377;-83
2023/03/27 03:22:46;;;;;;;4.47;3.10;;;;;;;;;;5089045;28;20024;-83
2023/03/27 03:25:13;;;;;;;4.00;3.20;;;;;;;;;;5088982;28;20050;-83
2023/03/27 03:27:40;;;;;;;3.90;3.17;;;;;;;;;;5088999;28;20020;-83
2023/03/27 03:30:08;;;;;;;4.15;2.83;;;;;;;;;;5089497;28;20021;-83
2023/03/27 03:32:34;;;;;;;4.97;3.20;;;;;;;;;;5088772;28;20052;-84
2023/03/27 03:35:00;;;;;;;4.90;2.90;;;;;;;;;;5088999;28;20024;-83
2023/03/27 03:37:27;;;;;;;4.22;2.90;;;;;;;;;;5088617;28;20056;-83
2023/03/27 03:39:56;;;;;;;4.15;2.80;;;;;;;;;;5088995;28;20028;-83
2023/03/27 03:42:23;;;;;;;3.60;2.90;;;;;;;;;;5088916;28;20495;-82
2023/03/27 03:44:49;;;;;;;4.60;3.15;;;;;;;;;;5088060;28;20129;-81
2023/03/27 03:47:15;;;;;;;4.70;3.00;;;;;;;;;;5088825;28;20331;-82
2023/03/27 03:49:41;;;;;;;4.85;3.35;;;;;;;;;;5088422;28;20066;-84
2023/03/27 03:52:07;;;;;;;4.13;3.05;;;;;;;;;;5088725;28;20131;-83
2023/03/27 03:54:33;;;;;;;3.38;2.80;;;;;;;;;;5087864;28;20123;-82
2023/03/27 03:56:59;;;;;;;3.80;3.00;;;;;;;;;;5074389;28;20064;-83
2023/03/27 03:59:25;;;;;;;4.57;3.13;;;;;;;;;;5075446;28;20382;-82
2023/03/27 04:01:51;;;;;;;4.97;3.20;;;;;;;;;;5074854;28;20028;-83
2023/03/27 04:04:17;;;;;;;3.83;3.00;;;;;;;;;;5074647;28;20035;-83
2023/03/27 04:06:44;;;;;;;4.40;2.90;;;;;;;;;;5074826;28;20025;-83
2023/03/27 04:09:10;;;;;;;3.78;2.90;;;;;;;;;;5074436;28;20169;-82
2023/03/27 04:11:36;;;;;;;3.00;2.70;;;;;;;;;;5074585;28;20059;-82
2023/03/27 04:14:02;;;;;;;4.38;2.90;;;;;;;;;;5074621;28;20055;-83
2023/03/27 04:16:28;;;;;;;6.95;3.30;;;;;;;;;;5073980;28;20382;-83
2023/03/27 04:18:54;;;;;;;4.05;2.80;;;;;;;;;;5073644;28;20028;-83
2023/03/27 04:21:20;;;;;;;4.03;2.70;;;;;;;;;;5073575;28;20076;-83
2023/03/27 04:23:50;;;;;;;3.63;2.90;;;;;;;;;;5073652;28;20102;-83
2023/03/27 04:26:16;;;;;;;3.97;2.92;;;;;;;;;;5073919;28;20035;-83
2023/03/27 04:28:42;;;;;;;4.22;2.67;;;;;;;;;;5073471;28;20024;-83
2023/03/27 04:31:09;;;;;;;4.07;2.90;;;;;;;;;;5073848;28;20044;-83
2023/03/27 04:33:45;;;;;;;4.70;2.97;;;;;;;;;;5073164;28;20119;-84
2023/03/27 04:36:15;;;;;;;3.42;2.67;;;;;;;;;;5073550;28;20021;-83
2023/03/27 04:38:41;;;;;;;3.40;2.70;;;;;;;;;;5072783;28;20025;-82
2023/03/27 04:41:07;;;;;;;3.65;2.80;;;;;;;;;;5073164;28;20052;-82
2023/03/27 04:43:38;;;;;;;3.95;2.63;;;;;;;;;;5072709;28;20130;-82
2023/03/27 04:46:05;;;;;;;5.03;3.10;;;;;;;;;;5073126;28;20432;-82
2023/03/27 04:48:31;;;;;;;4.40;2.70;;;;;;;;;;5073055;28;20070;-83
2023/03/27 04:50:58;;;;;;;4.40;2.85;;;;;;;;;;5072887;28;20020;-82
2023/03/27 04:53:29;;;;;;;4.45;2.75;;;;;;;;;;5072683;28;20032;-82
2023/03/27 04:55:56;;;;;;;3.90;2.63;;;;;;;;;;5072993;28;20107;-82
2023/03/27 04:58:24;;;;;;;6.47;2.88;;;;;;;;;;5072836;28;20024;-82
2023/03/27 05:00:54;;;;;;;4.35;2.70;;;;;;;;;;5072399;28;20064;-82
2023/03/27 05:03:21;;;;;;;5.00;2.63;;;;;;;;;;5072792;28;20090;-82
2023/03/27 05:05:48;;;;;;;5.05;2.90;;;;;;;;;;5072656;28;20024;-82
2023/03/27 05:08:14;;;;;;;4.05;2.60;;;;;;;;;;5071824;28;20020;-83
2023/03/27 05:10:41;;;;;;;4.22;2.60;;;;;;;;;;5072218;28;20469;-82
2023/03/27 05:13:07;;;;;;;4.00;2.70;;;;;;;;;;5072934;28;20115;-84
2023/03/27 05:15:33;;;;;;;4.45;2.60;;;;;;;;;;5072250;28;20151;-82
2023/03/27 05:17:59;;;;;;;5.70;3.10;;;;;;;;;;5072650;28;20021;-82
2023/03/27 05:20:26;;;;;;;3.88;2.50;;;;;;;;;;5072362;28;20024;-82
2023/03/27 05:22:53;;;;;;;3.80;2.78;;;;;;;;;;5072267;28;20029;-83
2023/03/27 05:25:19;;;;;;;3.80;2.70;;;;;;;;;;5072139;28;20458;-83
2023/03/27 05:27:49;;;;;;;4.47;2.67;;;;;;;;;;5072107;28;20031;-83
2023/03/27 05:30:16;;;;;;;3.55;2.42;;;;;;;;;;5072148;28;20047;-82
2023/03/27 05:32:47;;;;;;;6.00;2.80;;;;;;;;;;5071890;28;20024;-83
2023/03/27 05:35:15;;;;;;;3.75;2.60;;;;;;;;;;5072284;28;20027;-83
2023/03/27 05:37:41;;;;;;;4.55;2.72;;;;;;;;;;5071926;28;20032;-83
2023/03/27 05:40:07;;;;;;;4.60;2.63;;;;;;;;;;5072074;28;20063;-82
2023/03/27 05:42:33;;;;;;;4.80;2.65;;;;;;;;;;5071907;28;20017;-83
2023/03/27 05:44:59;;;;;;;6.25;3.00;;;;;;;;;;5072287;28;20052;-84
2023/03/27 05:47:25;;;;;;;5.07;2.90;;;;;;;;;;5072127;28;20029;-83
2023/03/27 05:49:51;;;;;;;5.20;2.58;;;;;;;;;;5071900;28;20391;-83
2023/03/27 05:52:18;;;;;;;5.28;2.63;;;;;;;;;;5074297;28;20082;-84
2023/03/27 05:54:44;;;;;;;4.47;2.58;;;;;;;;;;5072284;28;20033;-84
2023/03/27 05:57:10;;;;;;;3.53;2.28;;;;;;;;;;5072373;28;20635;-83
2023/03/27 05:59:36;;;;;;;4.07;2.70;;;;;;;;;;5072010;28;20070;-82
2023/03/27 06:02:02;;;;;;;6.00;2.58;;;;;;;;;;5071920;28;20028;-82
2023/03/27 06:04:30;;;;;;;4.78;2.83;;;;;;;;;;5072467;28;20091;-82
2023/03/27 06:06:56;;;;;;;4.00;2.40;;;;;;;;;;5072458;28;20018;-82
2023/03/27 06:09:22;;;;;;;4.15;2.58;;;;;;;;;;5072136;28;20032;-83
2023/03/27 06:11:48;;;;;;;5.82;2.75;;;;;;;;;;5071411;28;20616;-83
2023/03/27 06:14:14;;;;;;;4.10;2.53;;;;;;;;;;5071771;28;20043;-83
2023/03/27 06:16:40;;;;;;;6.88;2.50;;;;;;;;;;5071399;28;20084;-84
2023/03/27 06:19:06;;;;;;;3.88;2.58;;;;;;;;;;5071652;28;20024;-83
2023/03/27 06:21:32;;;;;;;3.92;2.60;;;;;;;;;;5071601;28;20107;-82
2023/03/27 06:23:58;;;;;;;3.47;2.38;;;;;;;;;;5071609;28;20476;-83
2023/03/27 06:26:27;;;;;;;4.10;2.30;;;;;;;;;;5071894;28;20420;-84
2023/03/27 06:28:54;;;;;;;4.72;2.50;;;;;;;;;;5071463;28;20032;-84
2023/03/27 06:31:20;;;;;;;3.25;2.42;;;;;;;;;;5071830;28;20462;-83
2023/03/27 06:33:47;;;;;;;3.40;2.28;;;;;;;;;;5071173;28;20492;-82
2023/03/27 06:36:13;;;;;;;4.68;2.67;;;;;;;;;;5071646;28;20120;-84
2023/03/27 06:38:39;;;;;;;4.25;2.38;;;;;;;;;;5071645;28;20074;-82
2023/03/27 06:41:05;;;;;;;3.80;2.70;;;;;;;;;;5071401;28;20020;-83
2023/03/27 06:43:31;;;;;;;4.75;2.70;;;;;;;;;;5072177;28;20060;-83
2023/03/27 06:45:58;;;;;;;4.38;2.55;;;;;;;;;;5071823;28;20067;-83
2023/03/27 06:48:24;;;;;;;4.05;2.63;;;;;;;;;;5071518;28;20024;-86
2023/03/27 06:50:51;;;;;;;5.13;2.50;;;;;;;;;;5071190;28;20040;-81
2023/03/27 06:53:17;;;;;;;4.82;2.53;;;;;;;;;;5072718;28;20044;-86
2023/03/27 06:55:43;;;;;;;3.60;2.22;;;;;;;;;;5074558;28;20021;-86
2023/03/27 06:58:13;;;;;;;5.13;2.53;;;;;;;;;;5078280;28;20059;-88
2023/03/27 07:00:40;;;;;;;2.47;2.17;;;;;;;;;;5073015;28;20020;-89
2023/03/27 07:03:07;;;;;;;7.82;2.90;;;;;;;;;;5072267;28;20021;-89
2023/03/27 07:05:37;;;;;;;6.75;2.38;;;;;;;;;;5073233;28;20028;-88
2023/03/27 07:08:05;;;;;;;3.95;2.60;;;;;;;;;;5073730;28;20012;-88
2023/03/27 07:10:31;;;;;;;6.10;2.80;;;;;;;;;;5073699;28;20024;-87
2023/03/27 07:12:57;;;;;;;9.10;2.78;;;;;;;;;;5073404;28;20021;-87
2023/03/27 07:15:24;;;;;;;4.03;2.40;;;;;;;;;;5073587;28;20029;-85
2023/03/27 07:17:57;;;;;;;3.75;2.40;;;;;;;;;;5072100;28;20052;-87
2023/03/27 07:20:23;;;;;;;;;;;;;;;;;;5075216;28;20084;-90
2023/03/27 07:22:49;;;;;;;3.95;2.40;;;;;;;;;;5072157;28;19950;-88
2023/03/27 07:25:15;;;;;;;4.05;2.70;;;;;;;;;;5072845;28;20389;-88
2023/03/27 07:27:42;;;;;;;3.65;2.42;;;;;;;;;;5072047;28;20044;-88
2023/03/27 07:30:10;;;;;;;5.63;2.65;;;;;;;;;;5066417;28;20027;-87
2023/03/27 07:32:37;;;;;;;9.68;3.63;;;;;;;;;;5072090;28;20025;-83
2023/03/27 07:35:07;;;;;;;5.18;3.08;;;;;;;;;;5058299;28;20036;-84
2023/03/27 07:37:33;;;;;;;6.38;2.95;;;;;;;;;;5054475;28;20082;-84
2023/03/27 07:39:59;;;;;;;4.68;3.05;;;;;;;;;;5054397;28;20441;-84
2023/03/27 07:42:25;;;;;;;5.20;3.40;;;;;;;;;;5069204;28;20182;-83
2023/03/27 07:44:51;;;;;;;9.40;2.90;;;;;;;;;;5074306;28;20071;-82
2023/03/27 07:47:17;;;;;;;4.38;2.90;;;;;;;;;;5068667;28;20083;-81
2023/03/27 07:49:43;;;;;;;4.70;2.92;;;;;;;;;;5062496;28;20037;-83
2023/03/27 07:52:09;;;;;;;4.70;3.20;;;;;;;;;;5078006;28;20024;-82
2023/03/27 07:54:35;;;;;;;6.85;3.42;;;;;;;;;;5077053;28;20071;-84
2023/03/27 07:57:02;;;;;;;5.05;3.13;;;;;;;;;;5078511;28;20048;-82
2023/03/27 07:59:28;;;;;;;6.57;2.78;;;;;;;;;;5082437;28;20055;-81
2023/03/27 08:01:54;;;;;;;3.30;2.63;;;;;;;;;;5059325;28;20458;-81
2023/03/27 08:04:21;;;;;;;4.85;3.08;;;;;;;;;;5070321;28;20036;-82
2023/03/27 08:06:47;;;;;;;6.10;2.97;;;;;;;;;;5072701;28;20017;-83
2023/03/27 08:09:13;;;;;;;4.30;3.03;;;;;;;;;;5056598;28;20060;-81
2023/03/27 08:11:40;;;;;;;6.13;2.95;;;;;;;;;;5055708;28;20143;-80
2023/03/27 08:14:08;;;;;;;6.28;3.22;;;;;;;;;;5056638;28;20029;-82
2023/03/27 08:16:34;;;;;;;4.40;2.90;;;;;;;;;;5056114;28;20098;-82
2023/03/27 08:19:02;;;;;;;5.28;3.30;;;;;;;;;;5056441;28;20043;-82
2023/03/27 08:21:30;;;;;;;5.75;3.00;;;;;;;;;;5057737;28;20051;-83
2023/03/27 08:23:57;;;;;;;4.05;3.03;;;;;;;;;;5055681;28;20029;-81
2023/03/27 08:26:23;;;;;;;4.70;3.20;;;;;;;;;;5069807;28;20025;-87
2023/03/27 08:28:52;;;;;;;5.50;3.40;;;;;;;;;;5062290;28;20056;-84
2023/03/27 08:31:19;;;;;;;4.90;3.30;;;;;;;;;;5062711;28;20390;-86
2023/03/27 08:33:45;;;;;;;5.80;3.28;;;;;;;;;;5071749;28;20028;-87
2023/03/27 08:36:13;;;;;;;4.80;3.15;;;;;;;;;;5074167;28;20142;-80
2023/03/27 08:38:40;;;;;;;4.63;3.10;;;;;;;;;;5070749;28;20024;-82
2023/03/27 08:41:06;;;;;;;5.50;3.15;;;;;;;;;;5061141;28;20028;-83
2023/03/27 08:43:36;;;;;;;6.40;3.13;;;;;;;;;;5074950;28;20050;-80
2023/03/27 08:46:06;;;;;;;6.25;3.22;;;;;;;;;;5075626;28;20024;-82
2023/03/27 08:48:42;;;;;;;6.93;3.45;;;;;;;;;;5075326;28;20405;-81
2023/03/27 08:51:16;;;;;;;6.35;3.55;;;;;;;;;;5069487;28;20491;-82
2023/03/27 08:53:52;;;;;;;5.53;3.15;;;;;;;;;;5055283;28;20104;-84
2023/03/27 08:56:19;;;;;;;6.13;3.35;;;;;;;;;;5058056;28;20499;-86
2023/03/27 08:58:46;;;;;;;11.02;3.28;;;;;;;;;;5064023;28;20035;-83
2023/03/27 09:01:28;;;;;;;4.47;3.10;;;;;;;;;;5066016;28;20116;-83
2023/03/27 09:03:59;;;;;;;8.75;3.10;;;;;;;;;;5062842;28;20363;-84
2023/03/27 09:06:28;;;;;;;9.27;3.00;;;;;;;;;;5066148;28;20017;-84
2023/03/27 09:09:11;;;;;;;14.07;3.13;;;;;;;;;;5066326;28;20036;-84
2023/03/27 09:11:44;;;;;;;6.88;3.42;;;;;;;;;;5065839;28;20078;-85
2023/03/27 09:14:30;;;;;;;6.53;3.17;;;;;;;;;;5065634;28;20028;-85
2023/03/27 09:16:59;;;;;;;6.07;2.92;;;;;;;;;;5048136;28;20032;-83
2023/03/27 09:19:45;;;;;;;4.55;2.88;;;;;;;;;;5063762;28;20036;-82
2023/03/27 09:22:13;;;;;;;8.30;2.80;;;;;;;;;;5050627;28;20020;-88
2023/03/27 09:24:40;;;;;;;6.25;3.10;;;;;;;;;;5060881;28;20535;-82
2023/03/27 09:27:14;;;;;;;7.25;3.08;;;;;;;;;;5065364;28;20025;-82
2023/03/27 09:29:40;;;;;;;;;;;;;;;;;;5065584;28;20509;-81
2023/03/27 09:32:11;;;;;;;5.30;2.80;;;;;;;;;;5064621;28;19943;-84
2023/03/27 09:34:38;;;;;;;4.90;2.90;;;;;;;;;;5065804;28;20027;-80
2023/03/27 09:37:10;;;;;;;5.05;2.97;;;;;;;;;;5055198;28;20074;-79
2023/03/27 09:39:38;;;;;;;4.70;2.72;;;;;;;;;;5054417;28;20028;-83
2023/03/27 09:42:09;;;;;;;4.68;2.85;;;;;;;;;;5054532;28;20036;-81
2023/03/27 09:44:37;;;;;;;6.43;2.95;;;;;;;;;;5055798;28;20045;-85
2023/03/27 09:47:11;;;;;;;5.18;3.00;;;;;;;;;;5058025;28;20029;-86
2023/03/27 09:49:38;;;;;;;4.53;2.90;;;;;;;;;;5058667;28;20025;-85
2023/03/27 09:52:04;;;;;;;5.28;2.80;;;;;;;;;;5058220;28;20032;-85
2023/03/27 09:54:48;;;;;;;4.25;2.80;;;;;;;;;;5060566;28;20110;-88
2023/03/27 09:57:14;;;;;;;4.32;2.80;;;;;;;;;;5055830;28;20037;-81
2023/03/27 09:59:57;;;;;;;5.80;2.92;;;;;;;;;;5053650;28;20037;-81
2023/03/27 10:02:25;;;;;;;8.87;2.93;;;;;;;;;;5052616;28;20033;-81
2023/03/27 10:05:12;;;;;;;16.08;4.28;;;;;;;;;;5051913;28;20033;-84
2023/03/27 10:07:39;;;;;;;9.35;3.50;;;;;;;;;;5060091;28;20324;-83
2023/03/27 10:10:07;;;;;;;8.10;3.33;;;;;;;;;;5068158;28;20021;-84
2023/03/27 10:12:35;;;;;;;6.07;2.90;;;;;;;;;;5073728;28;20028;-80
2023/03/27 10:15:03;;;;;;;9.65;2.60;;;;;;;;;;5079259;28;20028;-82
2023/03/27 10:17:32;;;;;;;3.92;2.63;;;;;;;;;;5078958;28;20020;-84
2023/03/27 10:20:00;;;;;;;5.85;2.78;;;;;;;;;;5074445;28;20037;-84
